Pagina principală
METAR-TAF:

METAR-TAF

Aeroporturi :

Duncan Municipal Airport (Halliburton Field)

Duncan, Oklahoma, Statele Unite ale Americii

Latitudine: 34-28-15N, longitudine: 097-57-36W, elevație: 339 m

Observații meteo curente

Raportul a fost făcut în urmă cu 20 de minute, la 23:35 UTC
Vânt 12 kt de la Est/Sud-est
Temperatură 25°C
Umiditate 54%
Presiune 1016 hPa
Vizibilitate: 16.1 km
Cer senin

METAR: KDUC 282335Z AUTO 12012KT 10SM CLR 25/15 A3001 RMK AO2 LTG DSNT W T02540149

Ora: 18:55 (23:55 UTC)


TAF: lipsă

Observații și prognoze meteo pentru peste 4.000 de aeroporturi (rapoarte METAR și TAF).

Stațiile disponibile sunt reprezentate pe hartă prin puncte galbene și roșii.

Țineți indicatorul mouse-ului pe punctul dorit pentru a vedea denumirea stației.

Apoi, faceți clic pentru a vedea observațiile și prognozele meteorologice.

Pentru a schimba harta: Pentru mărire, faceți clic pe butoanele verzi cu cruce neagră; pentru micșorare, pe butonul verde cu o liniuță; pentru hărți învecinate, pe săgețile verzi.


METAR-TAF: